sensor_id;sensor_type;location;lat;lon;timestamp;P1;durP1;ratioP1;P2;durP2;ratioP2
20525;SDS011;10421;49.142;9.232;2023-02-21T00:02:30;7.93;;;4.00;;
20525;SDS011;10421;49.142;9.232;2023-02-21T00:05:14;7.50;;;4.70;;
20525;SDS011;10421;49.142;9.232;2023-02-21T00:07:58;5.37;;;4.07;;
20525;SDS011;10421;49.142;9.232;2023-02-21T00:10:42;7.37;;;3.93;;
20525;SDS011;10421;49.142;9.232;2023-02-21T00:13:28;5.17;;;3.73;;
20525;SDS011;10421;49.142;9.232;2023-02-21T00:16:13;4.63;;;3.60;;
20525;SDS011;10421;49.142;9.232;2023-02-21T00:18:58;6.40;;;3.57;;
20525;SDS011;10421;49.142;9.232;2023-02-21T00:21:43;7.17;;;4.10;;
20525;SDS011;10421;49.142;9.232;2023-02-21T00:24:27;7.97;;;4.73;;
20525;SDS011;10421;49.142;9.232;2023-02-21T00:27:11;6.03;;;4.30;;
20525;SDS011;10421;49.142;9.232;2023-02-21T00:29:56;8.80;;;4.90;;
20525;SDS011;10421;49.142;9.232;2023-02-21T00:32:40;7.57;;;4.67;;
20525;SDS011;10421;49.142;9.232;2023-02-21T00:35:24;5.70;;;4.50;;
20525;SDS011;10421;49.142;9.232;2023-02-21T00:38:09;6.77;;;4.30;;
20525;SDS011;10421;49.142;9.232;2023-02-21T00:40:54;8.93;;;4.63;;
20525;SDS011;10421;49.142;9.232;2023-02-21T00:43:38;6.20;;;4.57;;
20525;SDS011;10421;49.142;9.232;2023-02-21T00:46:23;9.13;;;4.10;;
20525;SDS011;10421;49.142;9.232;2023-02-21T00:49:08;6.60;;;4.07;;
20525;SDS011;10421;49.142;9.232;2023-02-21T00:51:53;10.20;;;4.00;;
20525;SDS011;10421;49.142;9.232;2023-02-21T00:54:37;7.43;;;4.13;;
20525;SDS011;10421;49.142;9.232;2023-02-21T00:57:22;10.23;;;5.00;;
20525;SDS011;10421;49.142;9.232;2023-02-21T01:00:07;8.83;;;4.67;;
20525;SDS011;10421;49.142;9.232;2023-02-21T01:02:58;5.73;;;4.10;;
20525;SDS011;10421;49.142;9.232;2023-02-21T01:05:42;7.47;;;3.80;;
20525;SDS011;10421;49.142;9.232;2023-02-21T01:08:26;5.50;;;3.80;;
20525;SDS011;10421;49.142;9.232;2023-02-21T01:11:14;7.50;;;3.70;;
20525;SDS011;10421;49.142;9.232;2023-02-21T01:13:59;5.47;;;3.20;;
20525;SDS011;10421;49.142;9.232;2023-02-21T01:16:43;5.77;;;3.67;;
20525;SDS011;10421;49.142;9.232;2023-02-21T01:19:28;5.13;;;3.40;;
20525;SDS011;10421;49.142;9.232;2023-02-21T01:22:13;4.57;;;3.07;;
20525;SDS011;10421;49.142;9.232;2023-02-21T01:24:57;5.13;;;3.40;;
20525;SDS011;10421;49.142;9.232;2023-02-21T01:27:41;7.13;;;3.67;;
20525;SDS011;10421;49.142;9.232;2023-02-21T01:30:25;6.87;;;3.10;;
20525;SDS011;10421;49.142;9.232;2023-02-21T01:33:10;6.63;;;3.70;;
20525;SDS011;10421;49.142;9.232;2023-02-21T01:35:55;5.73;;;3.20;;
20525;SDS011;10421;49.142;9.232;2023-02-21T01:38:40;5.43;;;3.30;;
20525;SDS011;10421;49.142;9.232;2023-02-21T01:41:24;4.67;;;3.40;;
20525;SDS011;10421;49.142;9.232;2023-02-21T01:47:13;7.17;;;3.17;;
20525;SDS011;10421;49.142;9.232;2023-02-21T01:49:57;5.37;;;3.40;;
20525;SDS011;10421;49.142;9.232;2023-02-21T01:52:45;5.00;;;3.07;;
20525;SDS011;10421;49.142;9.232;2023-02-21T01:55:32;6.27;;;3.20;;
20525;SDS011;10421;49.142;9.232;2023-02-21T01:58:18;7.17;;;2.97;;
20525;SDS011;10421;49.142;9.232;2023-02-21T02:01:06;4.30;;;2.97;;
20525;SDS011;10421;49.142;9.232;2023-02-21T02:03:52;10.77;;;6.67;;
20525;SDS011;10421;49.142;9.232;2023-02-21T02:06:37;18.17;;;10.70;;
20525;SDS011;10421;49.142;9.232;2023-02-21T02:09:22;17.10;;;8.70;;
20525;SDS011;10421;49.142;9.232;2023-02-21T02:12:13;38.77;;;18.20;;
20525;SDS011;10421;49.142;9.232;2023-02-21T02:14:54;57.33;;;27.40;;
20525;SDS011;10421;49.142;9.232;2023-02-21T02:17:50;14.10;;;6.60;;
20525;SDS011;10421;49.142;9.232;2023-02-21T02:23:38;6.33;;;2.77;;
20525;SDS011;10421;49.142;9.232;2023-02-21T02:26:41;4.00;;;3.00;;
20525;SDS011;10421;49.142;9.232;2023-02-21T02:29:37;3.47;;;2.80;;
20525;SDS011;10421;49.142;9.232;2023-02-21T02:32:24;5.60;;;3.07;;
20525;SDS011;10421;49.142;9.232;2023-02-21T02:35:00;7.17;;;2.40;;
20525;SDS011;10421;49.142;9.232;2023-02-21T02:37:31;3.83;;;2.40;;
20525;SDS011;10421;49.142;9.232;2023-02-21T02:40:02;2.30;;;2.10;;
20525;SDS011;10421;49.142;9.232;2023-02-21T02:42:38;3.20;;;2.40;;
20525;SDS011;10421;49.142;9.232;2023-02-21T02:45:13;2.63;;;2.10;;
20525;SDS011;10421;49.142;9.232;2023-02-21T02:47:45;4.03;;;2.30;;
20525;SDS011;10421;49.142;9.232;2023-02-21T02:50:19;3.40;;;2.20;;
20525;SDS011;10421;49.142;9.232;2023-02-21T02:52:48;3.50;;;1.90;;
20525;SDS011;10421;49.142;9.232;2023-02-21T02:55:21;3.00;;;2.43;;
20525;SDS011;10421;49.142;9.232;2023-02-21T02:57:55;5.80;;;3.00;;
20525;SDS011;10421;49.142;9.232;2023-02-21T03:00:23;3.27;;;2.50;;
20525;SDS011;10421;49.142;9.232;2023-02-21T03:02:55;5.23;;;2.17;;
20525;SDS011;10421;49.142;9.232;2023-02-21T03:05:51;3.97;;;2.33;;
20525;SDS011;10421;49.142;9.232;2023-02-21T03:08:32;4.03;;;2.07;;
20525;SDS011;10421;49.142;9.232;2023-02-21T03:11:09;4.10;;;2.63;;
20525;SDS011;10421;49.142;9.232;2023-02-21T03:13:42;5.63;;;2.80;;
20525;SDS011;10421;49.142;9.232;2023-02-21T03:16:13;3.30;;;2.37;;
20525;SDS011;10421;49.142;9.232;2023-02-21T03:18:44;5.37;;;3.33;;
20525;SDS011;10421;49.142;9.232;2023-02-21T03:21:16;3.43;;;2.43;;
20525;SDS011;10421;49.142;9.232;2023-02-21T03:23:47;8.57;;;3.40;;
20525;SDS011;10421;49.142;9.232;2023-02-21T03:26:18;3.00;;;2.63;;
20525;SDS011;10421;49.142;9.232;2023-02-21T03:28:45;6.20;;;2.60;;
20525;SDS011;10421;49.142;9.232;2023-02-21T03:31:14;5.87;;;2.73;;
20525;SDS011;10421;49.142;9.232;2023-02-21T03:33:44;2.93;;;2.13;;
20525;SDS011;10421;49.142;9.232;2023-02-21T03:36:11;5.03;;;2.97;;
20525;SDS011;10421;49.142;9.232;2023-02-21T03:38:40;5.70;;;2.47;;
20525;SDS011;10421;49.142;9.232;2023-02-21T03:41:07;3.60;;;2.90;;
20525;SDS011;10421;49.142;9.232;2023-02-21T03:43:35;3.27;;;2.40;;
20525;SDS011;10421;49.142;9.232;2023-02-21T03:46:02;8.03;;;2.70;;
20525;SDS011;10421;49.142;9.232;2023-02-21T03:48:29;3.77;;;2.60;;
20525;SDS011;10421;49.142;9.232;2023-02-21T03:50:56;4.47;;;2.60;;
20525;SDS011;10421;49.142;9.232;2023-02-21T03:53:23;3.80;;;2.60;;
20525;SDS011;10421;49.142;9.232;2023-02-21T03:55:51;6.10;;;3.50;;
20525;SDS011;10421;49.142;9.232;2023-02-21T03:58:17;3.13;;;2.37;;
20525;SDS011;10421;49.142;9.232;2023-02-21T04:00:44;5.20;;;3.07;;
20525;SDS011;10421;49.142;9.232;2023-02-21T04:03:11;6.07;;;3.07;;
20525;SDS011;10421;49.142;9.232;2023-02-21T04:05:37;4.00;;;2.70;;
20525;SDS011;10421;49.142;9.232;2023-02-21T04:08:04;7.17;;;3.17;;
20525;SDS011;10421;49.142;9.232;2023-02-21T04:10:31;2.40;;;2.20;;
20525;SDS011;10421;49.142;9.232;2023-02-21T04:13:00;6.83;;;3.20;;
20525;SDS011;10421;49.142;9.232;2023-02-21T04:15:26;3.43;;;2.80;;
20525;SDS011;10421;49.142;9.232;2023-02-21T04:17:53;5.60;;;3.10;;
20525;SDS011;10421;49.142;9.232;2023-02-21T04:20:20;4.30;;;3.10;;
20525;SDS011;10421;49.142;9.232;2023-02-21T04:22:46;4.77;;;3.30;;
20525;SDS011;10421;49.142;9.232;2023-02-21T04:25:13;4.40;;;3.23;;
20525;SDS011;10421;49.142;9.232;2023-02-21T04:27:40;5.33;;;3.17;;
20525;SDS011;10421;49.142;9.232;2023-02-21T04:30:09;5.20;;;3.20;;
20525;SDS011;10421;49.142;9.232;2023-02-21T04:32:36;4.03;;;2.70;;
20525;SDS011;10421;49.142;9.232;2023-02-21T04:35:03;3.83;;;2.67;;
20525;SDS011;10421;49.142;9.232;2023-02-21T04:37:30;3.63;;;2.67;;
20525;SDS011;10421;49.142;9.232;2023-02-21T04:39:57;4.00;;;2.93;;
20525;SDS011;10421;49.142;9.232;2023-02-21T04:42:24;6.73;;;2.93;;
20525;SDS011;10421;49.142;9.232;2023-02-21T04:44:51;7.23;;;3.07;;
20525;SDS011;10421;49.142;9.232;2023-02-21T04:47:19;4.60;;;2.90;;
20525;SDS011;10421;49.142;9.232;2023-02-21T04:49:46;4.03;;;3.53;;
20525;SDS011;10421;49.142;9.232;2023-02-21T04:52:15;6.70;;;3.07;;
20525;SDS011;10421;49.142;9.232;2023-02-21T04:54:44;3.37;;;2.53;;
20525;SDS011;10421;49.142;9.232;2023-02-21T04:57:11;4.67;;;3.30;;
20525;SDS011;10421;49.142;9.232;2023-02-21T04:59:38;5.00;;;3.27;;
20525;SDS011;10421;49.142;9.232;2023-02-21T05:02:05;7.30;;;3.13;;
20525;SDS011;10421;49.142;9.232;2023-02-21T05:04:33;4.87;;;3.23;;
20525;SDS011;10421;49.142;9.232;2023-02-21T05:07:00;3.27;;;2.63;;
20525;SDS011;10421;49.142;9.232;2023-02-21T05:09:27;5.93;;;3.37;;
20525;SDS011;10421;49.142;9.232;2023-02-21T05:11:54;5.03;;;3.30;;
20525;SDS011;10421;49.142;9.232;2023-02-21T05:14:21;5.40;;;3.10;;
20525;SDS011;10421;49.142;9.232;2023-02-21T05:16:47;4.67;;;3.20;;
20525;SDS011;10421;49.142;9.232;2023-02-21T05:19:17;4.20;;;3.20;;
20525;SDS011;10421;49.142;9.232;2023-02-21T05:21:53;5.03;;;3.10;;
20525;SDS011;10421;49.142;9.232;2023-02-21T05:24:21;4.80;;;3.30;;
20525;SDS011;10421;49.142;9.232;2023-02-21T05:26:47;5.37;;;2.77;;
20525;SDS011;10421;49.142;9.232;2023-02-21T05:29:15;5.73;;;3.23;;
20525;SDS011;10421;49.142;9.232;2023-02-21T05:31:42;4.73;;;2.80;;
20525;SDS011;10421;49.142;9.232;2023-02-21T05:34:09;6.90;;;3.80;;
20525;SDS011;10421;49.142;9.232;2023-02-21T05:36:36;5.47;;;3.53;;
20525;SDS011;10421;49.142;9.232;2023-02-21T05:39:04;5.00;;;3.40;;
20525;SDS011;10421;49.142;9.232;2023-02-21T05:41:32;6.07;;;3.50;;
20525;SDS011;10421;49.142;9.232;2023-02-21T05:43:59;6.47;;;3.67;;
20525;SDS011;10421;49.142;9.232;2023-02-21T05:46:27;6.93;;;4.03;;
20525;SDS011;10421;49.142;9.232;2023-02-21T05:48:56;3.97;;;3.57;;
20525;SDS011;10421;49.142;9.232;2023-02-21T05:51:24;6.90;;;3.90;;
20525;SDS011;10421;49.142;9.232;2023-02-21T05:53:52;8.80;;;4.00;;
20525;SDS011;10421;49.142;9.232;2023-02-21T05:56:20;8.70;;;4.10;;
20525;SDS011;10421;49.142;9.232;2023-02-21T05:58:47;6.93;;;4.30;;
20525;SDS011;10421;49.142;9.232;2023-02-21T06:01:14;6.40;;;4.17;;
20525;SDS011;10421;49.142;9.232;2023-02-21T06:03:41;7.77;;;4.93;;
20525;SDS011;10421;49.142;9.232;2023-02-21T06:06:08;10.63;;;4.57;;
20525;SDS011;10421;49.142;9.232;2023-02-21T06:08:40;6.87;;;3.60;;
20525;SDS011;10421;49.142;9.232;2023-02-21T06:11:08;6.33;;;4.40;;
20525;SDS011;10421;49.142;9.232;2023-02-21T06:13:36;9.10;;;4.80;;
20525;SDS011;10421;49.142;9.232;2023-02-21T06:16:03;6.00;;;4.13;;
20525;SDS011;10421;49.142;9.232;2023-02-21T06:18:30;8.83;;;4.53;;
20525;SDS011;10421;49.142;9.232;2023-02-21T06:20:57;8.20;;;4.20;;
20525;SDS011;10421;49.142;9.232;2023-02-21T06:23:24;8.73;;;4.80;;
20525;SDS011;10421;49.142;9.232;2023-02-21T06:25:50;10.23;;;4.90;;
20525;SDS011;10421;49.142;9.232;2023-02-21T06:28:17;8.57;;;4.87;;
20525;SDS011;10421;49.142;9.232;2023-02-21T06:30:45;5.77;;;4.03;;
20525;SDS011;10421;49.142;9.232;2023-02-21T06:33:12;6.00;;;3.93;;
20525;SDS011;10421;49.142;9.232;2023-02-21T06:35:39;7.07;;;4.40;;
20525;SDS011;10421;49.142;9.232;2023-02-21T06:38:05;5.23;;;3.83;;
20525;SDS011;10421;49.142;9.232;2023-02-21T06:40:32;4.87;;;3.70;;
20525;SDS011;10421;49.142;9.232;2023-02-21T06:42:59;8.00;;;4.20;;
20525;SDS011;10421;49.142;9.232;2023-02-21T06:45:25;8.50;;;4.10;;
20525;SDS011;10421;49.142;9.232;2023-02-21T06:47:53;4.77;;;3.60;;
20525;SDS011;10421;49.142;9.232;2023-02-21T06:50:20;4.40;;;3.97;;
20525;SDS011;10421;49.142;9.232;2023-02-21T06:52:47;9.67;;;4.57;;
20525;SDS011;10421;49.142;9.232;2023-02-21T06:55:18;7.80;;;4.17;;
20525;SDS011;10421;49.142;9.232;2023-02-21T06:57:45;7.77;;;4.10;;
20525;SDS011;10421;49.142;9.232;2023-02-21T07:00:12;5.40;;;3.97;;
20525;SDS011;10421;49.142;9.232;2023-02-21T07:02:40;9.17;;;4.20;;
20525;SDS011;10421;49.142;9.232;2023-02-21T07:05:08;7.17;;;5.43;;
20525;SDS011;10421;49.142;9.232;2023-02-21T07:07:35;6.20;;;4.50;;
20525;SDS011;10421;49.142;9.232;2023-02-21T07:10:02;6.87;;;4.77;;
20525;SDS011;10421;49.142;9.232;2023-02-21T07:12:29;11.53;;;6.00;;
20525;SDS011;10421;49.142;9.232;2023-02-21T07:14:56;7.63;;;5.13;;
20525;SDS011;10421;49.142;9.232;2023-02-21T07:17:22;11.07;;;6.37;;
20525;SDS011;10421;49.142;9.232;2023-02-21T07:19:49;10.40;;;7.80;;
20525;SDS011;10421;49.142;9.232;2023-02-21T07:22:17;12.60;;;5.93;;
20525;SDS011;10421;49.142;9.232;2023-02-21T07:24:50;14.60;;;7.20;;
20525;SDS011;10421;49.142;9.232;2023-02-21T07:27:16;11.87;;;7.20;;
20525;SDS011;10421;49.142;9.232;2023-02-21T07:29:44;8.00;;;5.43;;
20525;SDS011;10421;49.142;9.232;2023-02-21T07:32:11;6.97;;;4.40;;
20525;SDS011;10421;49.142;9.232;2023-02-21T07:34:38;7.87;;;4.57;;
20525;SDS011;10421;49.142;9.232;2023-02-21T07:37:05;8.80;;;5.10;;
20525;SDS011;10421;49.142;9.232;2023-02-21T07:39:33;6.67;;;5.10;;
20525;SDS011;10421;49.142;9.232;2023-02-21T07:42:00;8.10;;;4.87;;
20525;SDS011;10421;49.142;9.232;2023-02-21T07:44:27;8.07;;;5.10;;
20525;SDS011;10421;49.142;9.232;2023-02-21T07:46:54;6.07;;;4.67;;
20525;SDS011;10421;49.142;9.232;2023-02-21T07:49:21;10.03;;;5.30;;
20525;SDS011;10421;49.142;9.232;2023-02-21T07:51:48;7.03;;;5.23;;
20525;SDS011;10421;49.142;9.232;2023-02-21T07:54:15;7.73;;;5.57;;
20525;SDS011;10421;49.142;9.232;2023-02-21T07:56:43;8.70;;;6.03;;
20525;SDS011;10421;49.142;9.232;2023-02-21T07:59:10;8.47;;;6.13;;
20525;SDS011;10421;49.142;9.232;2023-02-21T08:01:37;13.53;;;6.40;;
20525;SDS011;10421;49.142;9.232;2023-02-21T08:04:04;9.87;;;6.80;;
20525;SDS011;10421;49.142;9.232;2023-02-21T08:06:31;18.93;;;7.87;;
20525;SDS011;10421;49.142;9.232;2023-02-21T08:08:59;13.80;;;7.87;;
20525;SDS011;10421;49.142;9.232;2023-02-21T08:11:25;13.30;;;7.47;;
20525;SDS011;10421;49.142;9.232;2023-02-21T08:13:53;10.50;;;7.13;;
20525;SDS011;10421;49.142;9.232;2023-02-21T08:16:20;14.03;;;8.60;;
20525;SDS011;10421;49.142;9.232;2023-02-21T08:18:47;12.77;;;8.00;;
20525;SDS011;10421;49.142;9.232;2023-02-21T08:21:14;13.23;;;8.00;;
20525;SDS011;10421;49.142;9.232;2023-02-21T08:23:42;12.23;;;8.43;;
20525;SDS011;10421;49.142;9.232;2023-02-21T08:26:08;11.80;;;8.17;;
20525;SDS011;10421;49.142;9.232;2023-02-21T08:28:36;13.37;;;8.80;;
20525;SDS011;10421;49.142;9.232;2023-02-21T08:31:04;11.57;;;7.43;;
20525;SDS011;10421;49.142;9.232;2023-02-21T08:33:32;11.20;;;7.67;;
20525;SDS011;10421;49.142;9.232;2023-02-21T08:35:59;11.13;;;8.30;;
20525;SDS011;10421;49.142;9.232;2023-02-21T08:38:25;17.93;;;8.37;;
20525;SDS011;10421;49.142;9.232;2023-02-21T08:40:52;14.63;;;8.10;;
20525;SDS011;10421;49.142;9.232;2023-02-21T08:43:19;9.60;;;7.07;;
20525;SDS011;10421;49.142;9.232;2023-02-21T08:45:46;13.67;;;8.00;;
20525;SDS011;10421;49.142;9.232;2023-02-21T08:48:14;14.30;;;7.87;;
20525;SDS011;10421;49.142;9.232;2023-02-21T08:50:40;15.07;;;8.30;;
20525;SDS011;10421;49.142;9.232;2023-02-21T08:53:08;13.03;;;7.70;;
20525;SDS011;10421;49.142;9.232;2023-02-21T08:55:36;18.00;;;7.70;;
20525;SDS011;10421;49.142;9.232;2023-02-21T08:58:03;14.00;;;7.43;;
20525;SDS011;10421;49.142;9.232;2023-02-21T09:00:30;10.87;;;7.87;;
20525;SDS011;10421;49.142;9.232;2023-02-21T09:02:57;10.87;;;7.80;;
20525;SDS011;10421;49.142;9.232;2023-02-21T09:05:27;14.17;;;8.13;;
20525;SDS011;10421;49.142;9.232;2023-02-21T09:07:56;10.83;;;7.27;;
20525;SDS011;10421;49.142;9.232;2023-02-21T09:10:25;13.40;;;8.73;;
20525;SDS011;10421;49.142;9.232;2023-02-21T09:12:53;14.03;;;7.90;;
20525;SDS011;10421;49.142;9.232;2023-02-21T09:15:20;10.83;;;8.03;;
20525;SDS011;10421;49.142;9.232;2023-02-21T09:17:47;12.73;;;8.93;;
20525;SDS011;10421;49.142;9.232;2023-02-21T09:20:15;10.60;;;7.60;;
20525;SDS011;10421;49.142;9.232;2023-02-21T09:22:45;10.13;;;7.27;;
20525;SDS011;10421;49.142;9.232;2023-02-21T09:25:12;11.13;;;7.13;;
20525;SDS011;10421;49.142;9.232;2023-02-21T09:27:41;12.53;;;7.13;;
20525;SDS011;10421;49.142;9.232;2023-02-21T09:30:08;10.90;;;7.63;;
20525;SDS011;10421;49.142;9.232;2023-02-21T09:32:38;12.23;;;7.97;;
20525;SDS011;10421;49.142;9.232;2023-02-21T09:35:06;10.93;;;7.97;;
20525;SDS011;10421;49.142;9.232;2023-02-21T09:37:35;11.37;;;7.40;;
20525;SDS011;10421;49.142;9.232;2023-02-21T09:40:04;10.57;;;7.80;;
20525;SDS011;10421;49.142;9.232;2023-02-21T09:42:37;17.00;;;8.30;;
20525;SDS011;10421;49.142;9.232;2023-02-21T09:45:05;11.30;;;7.50;;
20525;SDS011;10421;49.142;9.232;2023-02-21T09:47:35;13.30;;;7.93;;
20525;SDS011;10421;49.142;9.232;2023-02-21T09:50:04;13.27;;;7.57;;
20525;SDS011;10421;49.142;9.232;2023-02-21T09:52:34;9.80;;;6.50;;
20525;SDS011;10421;49.142;9.232;2023-02-21T09:55:06;10.27;;;7.80;;
20525;SDS011;10421;49.142;9.232;2023-02-21T09:57:39;12.60;;;8.20;;
20525;SDS011;10421;49.142;9.232;2023-02-21T10:00:10;11.97;;;8.07;;
20525;SDS011;10421;49.142;9.232;2023-02-21T10:02:45;10.70;;;6.37;;
20525;SDS011;10421;49.142;9.232;2023-02-21T10:05:20;12.83;;;6.40;;
20525;SDS011;10421;49.142;9.232;2023-02-21T10:07:57;9.83;;;6.93;;
20525;SDS011;10421;49.142;9.232;2023-02-21T10:10:31;9.07;;;5.67;;
20525;SDS011;10421;49.142;9.232;2023-02-21T10:13:03;10.40;;;6.40;;
20525;SDS011;10421;49.142;9.232;2023-02-21T10:15:38;9.40;;;5.40;;
20525;SDS011;10421;49.142;9.232;2023-02-21T10:18:14;8.10;;;5.87;;
20525;SDS011;10421;49.142;9.232;2023-02-21T10:20:47;10.90;;;5.80;;
20525;SDS011;10421;49.142;9.232;2023-02-21T10:23:18;11.93;;;6.70;;
20525;SDS011;10421;49.142;9.232;2023-02-21T10:25:51;9.67;;;5.60;;
20525;SDS011;10421;49.142;9.232;2023-02-21T10:28:23;10.23;;;6.40;;
20525;SDS011;10421;49.142;9.232;2023-02-21T10:30:51;10.53;;;6.73;;
20525;SDS011;10421;49.142;9.232;2023-02-21T10:33:21;12.73;;;5.97;;
20525;SDS011;10421;49.142;9.232;2023-02-21T10:35:48;9.87;;;5.97;;
20525;SDS011;10421;49.142;9.232;2023-02-21T10:38:18;11.77;;;7.20;;
20525;SDS011;10421;49.142;9.232;2023-02-21T10:40:47;10.80;;;6.10;;
20525;SDS011;10421;49.142;9.232;2023-02-21T10:43:20;11.90;;;5.90;;
20525;SDS011;10421;49.142;9.232;2023-02-21T10:45:52;11.27;;;6.43;;
20525;SDS011;10421;49.142;9.232;2023-02-21T10:48:23;7.43;;;5.70;;
20525;SDS011;10421;49.142;9.232;2023-02-21T10:51:03;12.50;;;6.60;;
20525;SDS011;10421;49.142;9.232;2023-02-21T10:53:32;7.67;;;5.23;;
20525;SDS011;10421;49.142;9.232;2023-02-21T10:56:11;7.30;;;4.90;;
20525;SDS011;10421;49.142;9.232;2023-02-21T10:58:49;8.57;;;6.13;;
20525;SDS011;10421;49.142;9.232;2023-02-21T11:01:20;9.60;;;6.20;;
20525;SDS011;10421;49.142;9.232;2023-02-21T11:03:56;11.30;;;6.50;;
20525;SDS011;10421;49.142;9.232;2023-02-21T11:06:26;8.33;;;5.23;;
20525;SDS011;10421;49.142;9.232;2023-02-21T11:08:58;9.73;;;5.30;;
20525;SDS011;10421;49.142;9.232;2023-02-21T11:11:33;9.23;;;6.07;;
20525;SDS011;10421;49.142;9.232;2023-02-21T11:14:06;12.13;;;5.80;;
20525;SDS011;10421;49.142;9.232;2023-02-21T11:16:49;10.20;;;5.70;;
20525;SDS011;10421;49.142;9.232;2023-02-21T11:19:40;9.00;;;5.53;;
20525;SDS011;10421;49.142;9.232;2023-02-21T11:22:10;8.43;;;6.07;;
20525;SDS011;10421;49.142;9.232;2023-02-21T11:24:46;8.87;;;5.77;;
20525;SDS011;10421;49.142;9.232;2023-02-21T11:27:27;11.37;;;6.40;;
20525;SDS011;10421;49.142;9.232;2023-02-21T11:29:56;7.83;;;4.97;;
20525;SDS011;10421;49.142;9.232;2023-02-21T11:32:26;7.80;;;5.20;;
20525;SDS011;10421;49.142;9.232;2023-02-21T11:35:03;7.10;;;5.43;;
20525;SDS011;10421;49.142;9.232;2023-02-21T11:37:34;9.97;;;5.97;;
20525;SDS011;10421;49.142;9.232;2023-02-21T11:40:20;8.73;;;5.33;;
20525;SDS011;10421;49.142;9.232;2023-02-21T11:42:50;9.70;;;6.27;;
20525;SDS011;10421;49.142;9.232;2023-02-21T11:45:18;8.40;;;5.10;;
20525;SDS011;10421;49.142;9.232;2023-02-21T11:47:54;10.40;;;5.10;;
20525;SDS011;10421;49.142;9.232;2023-02-21T11:50:26;9.63;;;5.20;;
20525;SDS011;10421;49.142;9.232;2023-02-21T11:52:59;7.47;;;5.37;;
20525;SDS011;10421;49.142;9.232;2023-02-21T11:55:31;14.00;;;4.70;;
20525;SDS011;10421;49.142;9.232;2023-02-21T11:58:08;7.73;;;5.00;;
20525;SDS011;10421;49.142;9.232;2023-02-21T12:00:46;11.70;;;5.43;;
20525;SDS011;10421;49.142;9.232;2023-02-21T12:03:35;5.80;;;4.67;;
20525;SDS011;10421;49.142;9.232;2023-02-21T12:06:26;7.70;;;5.80;;
20525;SDS011;10421;49.142;9.232;2023-02-21T12:09:00;8.47;;;5.27;;
20525;SDS011;10421;49.142;9.232;2023-02-21T12:11:34;9.30;;;5.63;;
20525;SDS011;10421;49.142;9.232;2023-02-21T12:14:18;6.43;;;5.37;;
20525;SDS011;10421;49.142;9.232;2023-02-21T12:16:59;9.37;;;5.07;;
20525;SDS011;10421;49.142;9.232;2023-02-21T12:19:40;6.77;;;4.43;;
20525;SDS011;10421;49.142;9.232;2023-02-21T12:22:27;10.00;;;5.30;;
20525;SDS011;10421;49.142;9.232;2023-02-21T12:25:09;9.70;;;5.40;;
20525;SDS011;10421;49.142;9.232;2023-02-21T12:27:43;7.20;;;5.00;;
20525;SDS011;10421;49.142;9.232;2023-02-21T12:30:33;7.70;;;4.60;;
20525;SDS011;10421;49.142;9.232;2023-02-21T12:33:15;7.83;;;4.67;;
20525;SDS011;10421;49.142;9.232;2023-02-21T12:36:02;6.80;;;4.13;;
20525;SDS011;10421;49.142;9.232;2023-02-21T12:38:52;6.23;;;3.90;;
20525;SDS011;10421;49.142;9.232;2023-02-21T12:41:29;7.80;;;4.23;;
20525;SDS011;10421;49.142;9.232;2023-02-21T12:44:16;7.70;;;4.40;;
20525;SDS011;10421;49.142;9.232;2023-02-21T12:46:49;6.50;;;3.90;;
20525;SDS011;10421;49.142;9.232;2023-02-21T12:49:22;8.73;;;5.47;;
20525;SDS011;10421;49.142;9.232;2023-02-21T12:51:56;11.43;;;4.80;;
20525;SDS011;10421;49.142;9.232;2023-02-21T12:54:31;6.90;;;4.40;;
20525;SDS011;10421;49.142;9.232;2023-02-21T12:57:04;6.17;;;4.00;;
20525;SDS011;10421;49.142;9.232;2023-02-21T12:59:42;8.30;;;4.17;;
20525;SDS011;10421;49.142;9.232;2023-02-21T13:02:17;6.70;;;4.47;;
20525;SDS011;10421;49.142;9.232;2023-02-21T13:04:54;6.67;;;4.70;;
20525;SDS011;10421;49.142;9.232;2023-02-21T13:07:26;9.47;;;4.30;;
20525;SDS011;10421;49.142;9.232;2023-02-21T13:09:59;10.50;;;4.73;;
20525;SDS011;10421;49.142;9.232;2023-02-21T13:12:31;6.20;;;4.43;;
20525;SDS011;10421;49.142;9.232;2023-02-21T13:15:11;8.50;;;4.00;;
20525;SDS011;10421;49.142;9.232;2023-02-21T13:17:47;4.97;;;3.77;;
20525;SDS011;10421;49.142;9.232;2023-02-21T13:20:17;7.37;;;4.27;;
20525;SDS011;10421;49.142;9.232;2023-02-21T13:22:47;7.60;;;4.57;;
20525;SDS011;10421;49.142;9.232;2023-02-21T13:25:37;5.97;;;4.07;;
20525;SDS011;10421;49.142;9.232;2023-02-21T13:28:16;6.93;;;3.83;;
20525;SDS011;10421;49.142;9.232;2023-02-21T13:30:49;5.47;;;3.97;;
20525;SDS011;10421;49.142;9.232;2023-02-21T13:33:24;6.30;;;4.30;;
20525;SDS011;10421;49.142;9.232;2023-02-21T13:35:55;7.53;;;4.73;;
20525;SDS011;10421;49.142;9.232;2023-02-21T13:38:24;7.77;;;5.10;;
20525;SDS011;10421;49.142;9.232;2023-02-21T13:40:53;6.10;;;4.50;;
20525;SDS011;10421;49.142;9.232;2023-02-21T13:43:28;7.47;;;4.33;;
20525;SDS011;10421;49.142;9.232;2023-02-21T13:45:59;5.20;;;4.03;;
20525;SDS011;10421;49.142;9.232;2023-02-21T13:52:22;4.60;;;3.60;;
20525;SDS011;10421;49.142;9.232;2023-02-21T14:00:56;5.60;;;3.50;;
20525;SDS011;10421;49.142;9.232;2023-02-21T14:03:40;4.13;;;2.83;;
20525;SDS011;10421;49.142;9.232;2023-02-21T14:06:21;4.77;;;3.03;;
20525;SDS011;10421;49.142;9.232;2023-02-21T14:09:02;3.57;;;3.20;;
20525;SDS011;10421;49.142;9.232;2023-02-21T14:11:37;3.57;;;2.83;;
20525;SDS011;10421;49.142;9.232;2023-02-21T14:14:23;3.40;;;2.80;;
20525;SDS011;10421;49.142;9.232;2023-02-21T14:16:52;3.60;;;2.67;;
20525;SDS011;10421;49.142;9.232;2023-02-21T14:19:25;2.80;;;2.33;;
20525;SDS011;10421;49.142;9.232;2023-02-21T14:22:01;5.63;;;3.40;;
20525;SDS011;10421;49.142;9.232;2023-02-21T14:24:31;4.27;;;2.80;;
20525;SDS011;10421;49.142;9.232;2023-02-21T14:27:01;9.23;;;2.93;;
20525;SDS011;10421;49.142;9.232;2023-02-21T14:29:33;4.07;;;3.07;;
20525;SDS011;10421;49.142;9.232;2023-02-21T14:34:53;4.00;;;2.63;;
20525;SDS011;10421;49.142;9.232;2023-02-21T14:37:26;2.60;;;1.93;;
20525;SDS011;10421;49.142;9.232;2023-02-21T14:39:58;3.37;;;2.20;;
20525;SDS011;10421;49.142;9.232;2023-02-21T14:42:38;3.63;;;2.57;;
20525;SDS011;10421;49.142;9.232;2023-02-21T14:45:20;3.40;;;2.40;;
20525;SDS011;10421;49.142;9.232;2023-02-21T14:51:12;2.90;;;2.50;;
20525;SDS011;10421;49.142;9.232;2023-02-21T14:54:20;3.53;;;2.27;;
20525;SDS011;10421;49.142;9.232;2023-02-21T14:57:29;7.60;;;2.50;;
20525;SDS011;10421;49.142;9.232;2023-02-21T15:00:13;3.40;;;2.43;;
20525;SDS011;10421;49.142;9.232;2023-02-21T15:02:47;4.03;;;2.23;;
20525;SDS011;10421;49.142;9.232;2023-02-21T15:05:20;4.00;;;2.97;;
20525;SDS011;10421;49.142;9.232;2023-02-21T15:07:52;6.63;;;2.40;;
20525;SDS011;10421;49.142;9.232;2023-02-21T15:10:26;3.73;;;2.60;;
20525;SDS011;10421;49.142;9.232;2023-02-21T15:12:55;4.07;;;2.50;;
20525;SDS011;10421;49.142;9.232;2023-02-21T15:15:25;5.63;;;2.60;;
20525;SDS011;10421;49.142;9.232;2023-02-21T15:17:57;4.10;;;2.30;;
20525;SDS011;10421;49.142;9.232;2023-02-21T15:20:29;6.07;;;2.40;;
20525;SDS011;10421;49.142;9.232;2023-02-21T15:22:58;4.40;;;2.80;;
20525;SDS011;10421;49.142;9.232;2023-02-21T15:25:29;4.83;;;3.03;;
20525;SDS011;10421;49.142;9.232;2023-02-21T15:27:57;3.20;;;2.27;;
20525;SDS011;10421;49.142;9.232;2023-02-21T15:30:33;6.50;;;2.90;;
20525;SDS011;10421;49.142;9.232;2023-02-21T15:33:13;4.87;;;3.70;;
20525;SDS011;10421;49.142;9.232;2023-02-21T15:35:43;4.27;;;3.17;;
20525;SDS011;10421;49.142;9.232;2023-02-21T15:38:15;5.53;;;4.27;;
20525;SDS011;10421;49.142;9.232;2023-02-21T15:40:46;4.10;;;3.40;;
20525;SDS011;10421;49.142;9.232;2023-02-21T15:43:21;6.27;;;3.23;;
20525;SDS011;10421;49.142;9.232;2023-02-21T15:45:50;7.27;;;4.07;;